Time;durP1;ratioP1;P1;durP2;ratioP2;P2;SDS_P1;SDS_P2;PMS_P1;PMS_P2;Temp;Humidity;BMP_temperature;BMP_pressure;BME280_temperature;BME280_humidity;BME280_pressure;Samples;Min_cycle;Max_cycle;Signal;HPM_P1;HPM_P2
2023/06/09 00:01:44;;;;;;;6.55;3.70;;;19.40;99.90;;;;;;5052670;28;20021;-41
2023/06/09 00:04:13;;;;;;;5.35;3.83;;;19.30;99.90;;;;;;5053616;28;20056;-42
2023/06/09 00:06:39;;;;;;;6.05;3.72;;;19.30;99.90;;;;;;5053887;28;20090;-41
2023/06/09 00:09:06;;;;;;;4.82;3.80;;;19.30;99.90;;;;;;5053800;28;20032;-41
2023/06/09 00:11:33;;;;;;;8.40;3.75;;;19.30;99.90;;;;;;5053401;28;20029;-41
2023/06/09 00:13:59;;;;;;;4.85;3.65;;;19.30;99.90;;;;;;5053683;28;20029;-41
2023/06/09 00:16:28;;;;;;;4.63;3.47;;;19.30;99.90;;;;;;5053697;28;20037;-41
2023/06/09 00:18:54;;;;;;;5.93;3.78;;;19.30;99.90;;;;;;5053536;28;20053;-41
2023/06/09 00:21:20;;;;;;;4.82;3.67;;;19.30;99.90;;;;;;5053421;28;20145;-40
2023/06/09 00:23:46;;;;;;;5.43;3.80;;;19.30;99.90;;;;;;5053443;28;20151;-41
2023/06/09 00:26:12;;;;;;;7.38;3.83;;;19.30;99.90;;;;;;5053331;28;20021;-40
2023/06/09 00:28:39;;;;;;;6.80;4.22;;;19.30;99.90;;;;;;5053384;28;20032;-40
2023/06/09 00:31:05;;;;;;;5.25;3.60;;;19.30;99.90;;;;;;5053125;28;20029;-40
2023/06/09 00:33:31;;;;;;;7.43;4.38;;;19.30;99.90;;;;;;5053219;28;20036;-40
2023/06/09 00:35:56;;;;;;;6.13;3.45;;;19.30;99.90;;;;;;5053597;28;20639;-40
2023/06/09 00:38:22;;;;;;;4.65;3.78;;;19.30;99.90;;;;;;5052621;28;20369;-42
2023/06/09 00:40:50;;;;;;;5.80;3.67;;;19.30;99.90;;;;;;5052744;28;20068;-40
2023/06/09 00:43:15;;;;;;;5.55;3.42;;;19.20;99.90;;;;;;5053302;28;20018;-40
2023/06/09 00:45:41;;;;;;;4.32;3.80;;;19.20;99.90;;;;;;5052977;28;20028;-41
2023/06/09 00:48:08;;;;;;;5.85;3.92;;;19.20;99.90;;;;;;5053025;28;20052;-40
2023/06/09 00:50:34;;;;;;;5.90;3.63;;;19.20;99.90;;;;;;5052781;28;20036;-41
2023/06/09 00:53:00;;;;;;;5.68;3.63;;;19.20;99.90;;;;;;5052971;28;20079;-41
2023/06/09 00:55:27;;;;;;;5.60;3.97;;;19.20;99.90;;;;;;5052625;28;20491;-43
2023/06/09 00:57:55;;;;;;;6.13;3.58;;;19.20;99.90;;;;;;5052708;28;20049;-41
2023/06/09 01:00:26;;;;;;;4.93;3.70;;;19.20;99.90;;;;;;5052622;28;20020;-41
2023/06/09 01:03:00;;;;;;;6.97;3.70;;;19.20;99.90;;;;;;5052781;28;20071;-41
2023/06/09 01:05:34;;;;;;;5.57;3.45;;;19.20;99.90;;;;;;5052599;28;20044;-40
2023/06/09 01:08:23;;;;;;;7.75;3.80;;;19.20;99.90;;;;;;5052651;28;20036;-41
2023/06/09 01:11:00;;;;;;;4.95;3.70;;;19.20;99.90;;;;;;5051230;28;20048;-40
2023/06/09 01:13:47;;;;;;;5.30;3.90;;;19.20;99.90;;;;;;5052537;28;20051;-41
2023/06/09 01:16:36;;;;;;;4.25;3.60;;;19.10;99.90;;;;;;5052378;28;20087;-40
2023/06/09 01:19:06;;;;;;;6.38;3.60;;;19.20;99.90;;;;;;5052580;28;20060;-41
2023/06/09 01:21:40;;;;;;;4.50;3.80;;;19.20;99.90;;;;;;5052183;28;20027;-41
2023/06/09 01:24:31;;;;;;;5.90;3.75;;;19.10;99.90;;;;;;5052337;28;20061;-41
2023/06/09 01:27:01;;;;;;;6.55;3.60;;;19.10;99.90;;;;;;5052791;28;20021;-40
2023/06/09 01:29:30;;;;;;;9.75;4.07;;;19.10;99.90;;;;;;5052302;28;20033;-39
2023/06/09 01:31:56;;;;;;;5.60;3.55;;;19.10;99.90;;;;;;5052068;28;20057;-42
2023/06/09 01:34:22;;;;;;;5.60;3.42;;;19.10;99.90;;;;;;5052144;28;20036;-40
2023/06/09 01:36:51;;;;;;;5.25;3.67;;;19.10;99.90;;;;;;5052340;28;20029;-41
2023/06/09 01:39:17;;;;;;;8.38;3.97;;;19.10;99.90;;;;;;5051938;28;20040;-39
2023/06/09 01:41:43;;;;;;;6.97;3.85;;;19.10;99.90;;;;;;5051971;28;20030;-40
2023/06/09 01:44:09;;;;;;;4.82;3.78;;;19.10;99.90;;;;;;5051939;28;20025;-41
2023/06/09 01:46:34;;;;;;;5.95;3.70;;;19.00;99.90;;;;;;5051915;28;20508;-40
2023/06/09 01:49:06;;;;;;;5.10;3.60;;;19.10;99.90;;;;;;5051390;28;20025;-41
2023/06/09 01:51:41;;;;;;;5.60;3.60;;;19.10;99.90;;;;;;5051547;28;20056;-42
2023/06/09 01:54:14;;;;;;;4.65;3.55;;;19.00;99.90;;;;;;5051693;28;20021;-41
2023/06/09 01:56:46;;;;;;;6.20;3.60;;;19.00;99.90;;;;;;5051768;28;20025;-40
2023/06/09 01:59:19;;;;;;;4.32;3.35;;;19.00;99.90;;;;;;5051606;28;20052;-41
2023/06/09 02:01:47;;;;;;;5.97;3.67;;;19.00;99.90;;;;;;5051507;28;20025;-41
2023/06/09 02:04:14;;;;;;;6.20;3.90;;;19.00;99.90;;;;;;5051450;28;20036;-41
2023/06/09 02:06:41;;;;;;;9.18;3.97;;;19.00;99.90;;;;;;5051838;28;20484;-41
2023/06/09 02:09:06;;;;;;;4.05;3.65;;;19.00;99.90;;;;;;5051466;28;20029;-41
2023/06/09 02:11:32;;;;;;;5.90;3.70;;;19.00;99.90;;;;;;5051256;28;20021;-41
2023/06/09 02:13:58;;;;;;;5.45;4.13;;;19.00;99.90;;;;;;5051413;28;20530;-41
2023/06/09 02:16:24;;;;;;;6.40;3.50;;;19.00;99.90;;;;;;5051450;28;20476;-40
2023/06/09 02:18:50;;;;;;;7.53;3.67;;;19.00;99.90;;;;;;5051247;28;20037;-41
2023/06/09 02:21:16;;;;;;;4.25;3.50;;;19.00;99.90;;;;;;5051151;28;20060;-43
2023/06/09 02:23:42;;;;;;;5.38;3.83;;;19.00;99.90;;;;;;5051509;28;20144;-40
2023/06/09 02:26:07;;;;;;;4.70;3.58;;;19.00;99.90;;;;;;5051590;28;20021;-41
2023/06/09 02:28:33;;;;;;;4.78;3.63;;;19.00;99.90;;;;;;5051243;28;20480;-41
2023/06/09 02:30:59;;;;;;;7.32;3.28;;;18.90;99.90;;;;;;5051029;28;20052;-41
2023/06/09 02:33:25;;;;;;;5.05;3.80;;;18.90;99.90;;;;;;5051681;28;20067;-41
2023/06/09 02:35:51;;;;;;;4.82;3.92;;;18.90;99.90;;;;;;5051710;28;20057;-41
2023/06/09 02:38:17;;;;;;;5.80;3.55;;;19.00;99.90;;;;;;5051010;28;20035;-41
2023/06/09 02:40:45;;;;;;;6.05;3.55;;;18.90;99.90;;;;;;5050926;28;20021;-40
2023/06/09 02:43:12;;;;;;;5.70;3.65;;;19.00;99.90;;;;;;5049934;28;20646;-41
2023/06/09 02:45:38;;;;;;;5.93;3.83;;;18.90;99.90;;;;;;5050941;28;20111;-40
2023/06/09 02:48:04;;;;;;;3.78;3.35;;;18.90;99.90;;;;;;5050992;28;20107;-40
2023/06/09 02:50:30;;;;;;;5.00;3.40;;;18.90;99.90;;;;;;5050796;28;20108;-41
2023/06/09 02:52:56;;;;;;;6.07;3.78;;;18.90;99.90;;;;;;5050976;28;20748;-41
2023/06/09 02:55:22;;;;;;;6.68;3.58;;;18.90;99.90;;;;;;5051319;28;20041;-41
2023/06/09 02:57:47;;;;;;;6.40;3.90;;;18.90;99.90;;;;;;5050871;28;20064;-41
2023/06/09 03:00:14;;;;;;;4.55;3.67;;;18.90;99.90;;;;;;5050804;28;20032;-40
2023/06/09 03:02:41;;;;;;;6.10;3.42;;;18.90;99.90;;;;;;5055184;28;20036;-41
2023/06/09 03:05:07;;;;;;;4.35;3.70;;;18.90;99.90;;;;;;5054829;28;20404;-41
2023/06/09 03:07:34;;;;;;;8.65;3.72;;;18.90;99.90;;;;;;5055029;28;20027;-41
2023/06/09 03:10:00;;;;;;;4.43;3.90;;;18.90;99.90;;;;;;5054662;28;20082;-41
2023/06/09 03:12:26;;;;;;;3.78;3.40;;;18.90;99.90;;;;;;5054971;28;20128;-42
2023/06/09 03:14:51;;;;;;;5.70;3.50;;;18.90;99.90;;;;;;5054643;28;20104;-40
2023/06/09 03:17:17;;;;;;;6.38;3.90;;;18.90;99.90;;;;;;5054849;28;20032;-40
2023/06/09 03:19:43;;;;;;;6.03;3.72;;;18.90;99.90;;;;;;5054587;28;20618;-40
2023/06/09 03:22:09;;;;;;;7.65;4.13;;;18.90;99.90;;;;;;5054435;28;20111;-40
2023/06/09 03:24:35;;;;;;;5.00;3.58;;;18.80;99.90;;;;;;5054567;28;20028;-40
2023/06/09 03:27:00;;;;;;;11.07;4.10;;;18.80;99.90;;;;;;5054600;28;20025;-40
2023/06/09 03:29:28;;;;;;;5.72;3.67;;;18.80;99.90;;;;;;5054488;28;20109;-44
2023/06/09 03:31:54;;;;;;;8.50;3.90;;;18.80;99.90;;;;;;5054268;28;20028;-42
2023/06/09 03:34:20;;;;;;;4.95;3.78;;;18.80;99.90;;;;;;5054393;28;20092;-41
2023/06/09 03:36:46;;;;;;;5.20;3.40;;;18.80;99.90;;;;;;5054404;28;20108;-40
2023/06/09 03:39:12;;;;;;;5.57;3.80;;;18.80;99.90;;;;;;5054342;28;20028;-41
2023/06/09 03:41:37;;;;;;;6.55;3.63;;;18.80;99.90;;;;;;5054141;28;20434;-40
2023/06/09 03:44:03;;;;;;;4.05;3.60;;;18.80;99.90;;;;;;5054127;28;20446;-40
2023/06/09 03:46:29;;;;;;;4.40;3.40;;;18.80;99.90;;;;;;5054170;28;20415;-43
2023/06/09 03:48:55;;;;;;;6.85;3.55;;;18.80;99.90;;;;;;5054158;28;20086;-41
2023/06/09 03:51:20;;;;;;;5.15;3.60;;;18.80;99.90;;;;;;5053831;28;20079;-40
2023/06/09 03:53:46;;;;;;;8.07;3.92;;;18.80;99.90;;;;;;5054006;28;20025;-41
2023/06/09 03:56:13;;;;;;;5.25;3.63;;;18.80;99.90;;;;;;5054198;28;20033;-40
2023/06/09 03:58:39;;;;;;;6.38;4.10;;;18.80;99.90;;;;;;5053782;28;20032;-41
2023/06/09 04:01:10;;;;;;;4.50;3.47;;;18.80;99.90;;;;;;5053803;28;20286;-41
2023/06/09 04:03:39;;;;;;;4.40;3.55;;;18.80;99.90;;;;;;5053745;28;20104;-41
2023/06/09 04:06:05;;;;;;;4.15;3.75;;;18.80;99.90;;;;;;5053828;28;20029;-41
2023/06/09 04:08:31;;;;;;;5.78;3.67;;;18.70;99.90;;;;;;5053802;28;20044;-40
2023/06/09 04:10:57;;;;;;;4.50;3.30;;;18.70;99.90;;;;;;5053799;28;20025;-40
2023/06/09 04:13:23;;;;;;;4.88;3.35;;;18.70;99.90;;;;;;5052768;28;20059;-41
2023/06/09 04:15:48;;;;;;;5.78;3.60;;;18.70;99.90;;;;;;5053714;28;20480;-41
2023/06/09 04:18:15;;;;;;;5.57;3.50;;;18.70;99.90;;;;;;5053505;28;20104;-41
2023/06/09 04:20:41;;;;;;;6.70;3.75;;;18.70;99.90;;;;;;5053513;28;20021;-40
2023/06/09 04:23:08;;;;;;;5.50;3.65;;;18.70;99.90;;;;;;5053545;28;20032;-41
2023/06/09 04:25:34;;;;;;;5.70;3.55;;;18.70;99.90;;;;;;5053328;28;20017;-41
2023/06/09 04:28:03;;;;;;;7.15;3.47;;;18.70;99.90;;;;;;5053350;28;20017;-40
2023/06/09 04:30:29;;;;;;;5.18;3.65;;;18.70;99.90;;;;;;5053162;28;20530;-40
2023/06/09 04:32:58;;;;;;;5.40;3.60;;;18.70;99.90;;;;;;5053508;28;20033;-40
2023/06/09 04:35:24;;;;;;;5.25;3.72;;;18.70;99.90;;;;;;5053361;28;20025;-41
2023/06/09 04:37:50;;;;;;;5.53;3.88;;;18.70;99.90;;;;;;5053185;28;20021;-40
2023/06/09 04:40:23;;;;;;;7.28;3.67;;;18.70;99.90;;;;;;5052868;28;20035;-39
2023/06/09 04:42:56;;;;;;;6.20;3.75;;;18.70;99.90;;;;;;5053419;28;20498;-40
2023/06/09 04:45:27;;;;;;;6.85;3.65;;;18.70;99.90;;;;;;5053038;28;20021;-40
2023/06/09 04:47:57;;;;;;;4.85;3.63;;;18.70;99.90;;;;;;5053155;28;20025;-41
2023/06/09 04:50:23;;;;;;;10.27;3.80;;;18.70;99.90;;;;;;5052794;28;20029;-43
2023/06/09 04:52:49;;;;;;;6.88;4.07;;;18.70;99.90;;;;;;5052812;28;20028;-42
2023/06/09 04:55:15;;;;;;;5.25;3.83;;;18.70;99.90;;;;;;5052908;28;20020;-42
2023/06/09 04:57:40;;;;;;;7.35;3.65;;;18.70;99.90;;;;;;5052881;28;20108;-41
2023/06/09 05:00:12;;;;;;;4.95;3.67;;;18.70;99.90;;;;;;5052529;28;20025;-41
2023/06/09 05:02:39;;;;;;;5.68;3.65;;;18.70;99.90;;;;;;5053185;28;20504;-40
2023/06/09 05:05:05;;;;;;;4.82;3.50;;;18.70;99.90;;;;;;5101803;23;20040;-42
2023/06/09 05:07:31;;;;;;;4.72;3.78;;;18.70;99.90;;;;;;5072418;28;20096;-42
2023/06/09 05:09:56;;;;;;;5.07;3.80;;;18.70;99.90;;;;;;5071167;28;20489;-42
2023/06/09 05:12:22;;;;;;;6.13;3.90;;;18.70;99.90;;;;;;5072496;28;20028;-42
2023/06/09 05:14:47;;;;;;;4.90;3.78;;;18.70;99.90;;;;;;5072527;28;20383;-42
2023/06/09 05:17:13;;;;;;;5.22;3.90;;;18.70;99.90;;;;;;5072496;28;20104;-42
2023/06/09 05:19:39;;;;;;;8.18;3.88;;;18.70;99.90;;;;;;5072303;28;20040;-44
2023/06/09 05:22:04;;;;;;;7.82;4.00;;;18.80;99.90;;;;;;5072175;28;20032;-43
2023/06/09 05:24:30;;;;;;;7.13;4.03;;;18.70;99.90;;;;;;5072305;28;20024;-42
2023/06/09 05:26:55;;;;;;;6.60;3.58;;;18.70;99.90;;;;;;5072252;28;20027;-43
2023/06/09 05:29:21;;;;;;;5.45;4.28;;;18.70;99.90;;;;;;5072262;28;20149;-44
2023/06/09 05:31:47;;;;;;;6.50;3.72;;;18.70;99.90;;;;;;5072041;28;20070;-42
2023/06/09 05:34:12;;;;;;;9.48;3.95;;;18.80;99.90;;;;;;5071064;28;20023;-42
2023/06/09 05:36:38;;;;;;;4.78;3.92;;;18.80;99.90;;;;;;5072175;28;20024;-43
2023/06/09 05:39:03;;;;;;;5.70;3.83;;;18.80;99.90;;;;;;5072052;28;20078;-43
2023/06/09 05:41:29;;;;;;;5.85;3.90;;;18.80;99.90;;;;;;5071776;28;20082;-42
2023/06/09 05:43:57;;;;;;;6.47;4.30;;;18.80;99.90;;;;;;5072082;28;20098;-44
2023/06/09 05:46:23;;;;;;;4.70;3.97;;;18.80;99.90;;;;;;5072172;28;20082;-42
2023/06/09 05:48:50;;;;;;;6.13;3.83;;;18.80;99.90;;;;;;5071888;28;20032;-42
2023/06/09 05:51:17;;;;;;;6.70;4.40;;;18.80;99.90;;;;;;5071773;28;20020;-43
2023/06/09 05:53:43;;;;;;;7.90;4.10;;;18.80;99.90;;;;;;5071877;28;20048;-43
2023/06/09 05:56:09;;;;;;;8.23;4.32;;;18.80;99.90;;;;;;5071687;28;20486;-44
2023/06/09 05:58:36;;;;;;;6.82;3.90;;;18.80;99.90;;;;;;5071572;28;20475;-45
2023/06/09 06:01:03;;;;;;;6.00;4.32;;;18.90;99.90;;;;;;5071543;28;20027;-42
2023/06/09 06:03:29;;;;;;;5.70;3.97;;;18.90;99.90;;;;;;5071630;28;20074;-42
2023/06/09 06:05:55;;;;;;;9.85;4.15;;;18.90;99.90;;;;;;5071445;28;20032;-42
2023/06/09 06:08:20;;;;;;;4.95;4.00;;;18.80;99.90;;;;;;5071625;28;20032;-42
2023/06/09 06:10:46;;;;;;;5.38;4.05;;;18.90;99.90;;;;;;5071221;28;20041;-41
2023/06/09 06:13:13;;;;;;;5.22;4.03;;;18.90;99.90;;;;;;5071595;28;20478;-45
2023/06/09 06:15:39;;;;;;;5.97;4.82;;;19.00;99.90;;;;;;5071403;28;20498;-42
2023/06/09 06:18:04;;;;;;;6.07;4.10;;;19.00;99.90;;;;;;5071333;28;20036;-42
2023/06/09 06:20:30;;;;;;;7.90;4.72;;;19.00;99.90;;;;;;5071253;28;20536;-43
2023/06/09 06:22:57;;;;;;;8.23;4.30;;;19.00;99.90;;;;;;5071381;28;20017;-43
2023/06/09 06:25:23;;;;;;;9.00;4.53;;;19.00;99.90;;;;;;5071234;28;20134;-44
2023/06/09 06:27:49;;;;;;;6.03;4.43;;;19.00;99.90;;;;;;5071306;28;20101;-43
2023/06/09 06:30:15;;;;;;;5.35;4.03;;;19.00;99.90;;;;;;5071166;28;20020;-42
2023/06/09 06:32:52;;;;;;;4.95;4.15;;;19.00;99.90;;;;;;5071307;28;20020;-44
2023/06/09 06:35:26;;;;;;;7.25;4.15;;;19.00;99.90;;;;;;5070778;28;20032;-44
2023/06/09 06:37:52;;;;;;;4.65;3.75;;;19.00;99.90;;;;;;5071168;28;20331;-41
2023/06/09 06:40:17;;;;;;;4.40;3.92;;;19.00;99.90;;;;;;5071003;28;20025;-42
2023/06/09 06:42:43;;;;;;;4.80;3.80;;;19.00;99.90;;;;;;5071257;28;20407;-42
2023/06/09 06:45:09;;;;;;;4.93;3.90;;;19.00;99.90;;;;;;5069768;28;20028;-44
2023/06/09 06:47:35;;;;;;;5.78;3.53;;;19.00;99.90;;;;;;5071057;28;20466;-43
2023/06/09 06:50:01;;;;;;;6.30;3.63;;;19.10;99.90;;;;;;5070854;28;20025;-42
2023/06/09 06:52:27;;;;;;;6.18;4.47;;;19.10;99.90;;;;;;5071014;28;20111;-44
2023/06/09 06:54:53;;;;;;;5.38;3.85;;;19.10;99.90;;;;;;5070989;28;20105;-45
2023/06/09 06:57:18;;;;;;;6.20;3.80;;;19.10;99.90;;;;;;5071093;28;20498;-42
2023/06/09 06:59:44;;;;;;;5.13;3.60;;;19.10;99.90;;;;;;5070975;28;20071;-43
2023/06/09 07:02:10;;;;;;;5.70;3.88;;;19.10;99.90;;;;;;5070884;28;20029;-44
2023/06/09 07:04:36;;;;;;;4.65;3.65;;;19.10;99.90;;;;;;5070844;28;20029;-45
2023/06/09 07:07:02;;;;;;;6.03;4.13;;;19.10;99.90;;;;;;5070909;28;20036;-42
2023/06/09 07:09:28;;;;;;;6.53;3.72;;;19.10;99.90;;;;;;5070921;28;20025;-42
2023/06/09 07:11:54;;;;;;;6.00;3.60;;;19.10;99.90;;;;;;5071049;28;20036;-42
2023/06/09 07:14:20;;;;;;;4.55;4.03;;;19.20;99.90;;;;;;5070809;28;20028;-42
2023/06/09 07:16:45;;;;;;;4.50;3.92;;;19.20;99.90;;;;;;5070920;28;20103;-43
2023/06/09 07:19:11;;;;;;;3.53;3.20;;;19.20;99.90;;;;;;5070834;28;20544;-42
2023/06/09 07:21:37;;;;;;;5.63;3.63;;;19.20;99.90;;;;;;5070580;28;20131;-42
2023/06/09 07:24:05;;;;;;;4.47;3.70;;;19.20;99.90;;;;;;5070822;28;20021;-44
2023/06/09 07:26:32;;;;;;;4.85;3.78;;;19.20;99.90;;;;;;5070792;28;20475;-42
2023/06/09 07:28:58;;;;;;;5.25;4.30;;;19.20;99.90;;;;;;5070755;28;20403;-44
2023/06/09 07:31:23;;;;;;;6.15;4.18;;;19.20;99.90;;;;;;5070546;28;20024;-45
2023/06/09 07:33:49;;;;;;;6.07;3.97;;;19.20;99.90;;;;;;5070629;28;20032;-42
2023/06/09 07:36:15;;;;;;;4.85;3.80;;;19.20;99.90;;;;;;5070708;28;20360;-42
2023/06/09 07:38:44;;;;;;;5.05;3.67;;;19.20;99.90;;;;;;5070592;28;20021;-42
2023/06/09 07:41:09;;;;;;;3.45;3.15;;;19.20;99.90;;;;;;5070413;28;20028;-41
2023/06/09 07:43:35;;;;;;;5.20;3.72;;;19.20;99.90;;;;;;5070626;28;20094;-42
2023/06/09 07:46:01;;;;;;;5.40;3.85;;;19.20;99.90;;;;;;5070433;28;20459;-42
2023/06/09 07:48:27;;;;;;;3.75;3.08;;;19.20;99.90;;;;;;5072463;28;20099;-43
2023/06/09 07:50:53;;;;;;;5.97;3.53;;;19.20;99.90;;;;;;5073926;28;20494;-44
2023/06/09 07:53:20;;;;;;;3.88;3.47;;;19.20;99.90;;;;;;5074174;28;20036;-43
2023/06/09 07:55:45;;;;;;;4.53;3.45;;;19.20;99.90;;;;;;5074056;28;20032;-44
2023/06/09 07:58:11;;;;;;;4.60;3.60;;;19.20;99.90;;;;;;5073929;28;20024;-45
2023/06/09 08:00:37;;;;;;;5.15;3.75;;;19.20;99.90;;;;;;5073734;28;20027;-42
2023/06/09 08:03:03;;;;;;;4.82;3.75;;;19.20;99.90;;;;;;5073855;28;20095;-43
2023/06/09 08:05:30;;;;;;;4.93;3.38;;;19.20;99.90;;;;;;5073788;28;20388;-42
2023/06/09 08:07:57;;;;;;;4.43;3.38;;;19.30;99.90;;;;;;5073920;28;20031;-42
2023/06/09 08:10:23;;;;;;;5.07;3.35;;;19.30;99.90;;;;;;5073577;28;20021;-42
2023/06/09 08:12:52;;;;;;;4.65;4.13;;;19.40;99.90;;;;;;5073758;28;20035;-42
2023/06/09 08:15:18;;;;;;;5.18;4.32;;;19.40;99.90;;;;;;5073706;28;20391;-42
2023/06/09 08:17:44;;;;;;;5.32;3.47;;;19.40;99.90;;;;;;5073508;28;20020;-43
2023/06/09 08:20:10;;;;;;;8.20;4.10;;;19.40;99.90;;;;;;5073359;28;20056;-41
2023/06/09 08:22:35;;;;;;;7.63;4.30;;;19.40;99.90;;;;;;5073633;28;20107;-43
2023/06/09 08:25:01;;;;;;;5.90;3.58;;;19.50;99.90;;;;;;5073551;28;20070;-43
2023/06/09 08:27:27;;;;;;;7.65;4.22;;;19.50;99.90;;;;;;5073504;28;20480;-46
2023/06/09 08:29:53;;;;;;;4.85;4.00;;;19.50;99.90;;;;;;5073740;28;20039;-44
2023/06/09 08:32:19;;;;;;;4.97;4.05;;;19.50;99.90;;;;;;5073216;28;20035;-44
2023/06/09 08:34:44;;;;;;;8.00;3.85;;;19.50;99.90;;;;;;5073552;28;20518;-42
2023/06/09 08:37:10;;;;;;;5.20;3.67;;;19.50;99.90;;;;;;5073365;28;20029;-43
2023/06/09 08:39:35;;;;;;;4.50;3.42;;;19.50;99.90;;;;;;5073164;28;20338;-42
2023/06/09 08:42:14;;;;;;;6.00;3.70;;;19.50;99.90;;;;;;5073143;28;20021;-43
2023/06/09 08:44:43;;;;;;;3.70;3.33;;;19.50;99.90;;;;;;5072979;28;20017;-42
2023/06/09 08:47:12;;;;;;;4.38;3.70;;;19.50;99.90;;;;;;5073061;28;20403;-42
2023/06/09 08:49:39;;;;;;;4.30;3.33;;;19.50;99.90;;;;;;5073080;28;20111;-43
2023/06/09 08:52:05;;;;;;;7.20;3.70;;;19.50;99.90;;;;;;5073136;28;20023;-42
2023/06/09 08:54:31;;;;;;;3.40;3.10;;;19.50;99.90;;;;;;5072989;28;20028;-43
2023/06/09 08:56:58;;;;;;;9.65;3.10;;;19.60;99.90;;;;;;5072891;28;20047;-43
2023/06/09 08:59:24;;;;;;;4.07;2.85;;;19.80;99.90;;;;;;5072398;28;20127;-45
2023/06/09 09:01:50;;;;;;;6.88;2.53;;;20.00;99.90;;;;;;5072802;28;20028;-45
2023/06/09 09:04:17;;;;;;;6.25;2.58;;;20.40;99.90;;;;;;5072923;28;20098;-46
2023/06/09 09:06:43;;;;;;;3.72;2.33;;;20.60;99.90;;;;;;5072778;28;20409;-47
2023/06/09 09:09:08;;;;;;;2.90;2.20;;;20.80;99.90;;;;;;5072749;28;20115;-44
2023/06/09 09:11:35;;;;;;;4.20;2.47;;;20.90;99.90;;;;;;5072389;28;20033;-45
2023/06/09 09:14:09;;;;;;;5.85;2.33;;;21.00;99.90;;;;;;5072379;28;20052;-45
2023/06/09 09:16:35;;;;;;;3.03;2.08;;;21.30;99.90;;;;;;5072668;28;20024;-45
2023/06/09 09:19:04;;;;;;;3.75;2.40;;;21.50;99.90;;;;;;5072499;28;20364;-45
2023/06/09 09:21:29;;;;;;;4.75;2.40;;;21.50;99.90;;;;;;5072290;28;20021;-46
2023/06/09 09:24:04;;;;;;;4.15;2.47;;;21.50;99.90;;;;;;5072332;28;20028;-45
2023/06/09 09:26:31;;;;;;;4.03;2.40;;;21.70;99.80;;;;;;5072343;28;20074;-49
2023/06/09 09:29:01;;;;;;;2.80;2.40;;;22.00;99.60;;;;;;5072173;28;20028;-45
2023/06/09 09:31:36;;;;;;;2.63;2.42;;;22.20;99.20;;;;;;5072035;28;20044;-44
2023/06/09 09:34:02;;;;;;;6.30;2.20;;;22.20;99.20;;;;;;5072083;28;20050;-45
2023/06/09 09:36:28;;;;;;;5.82;2.40;;;22.10;99.50;;;;;;5072605;28;20028;-47
2023/06/09 09:38:56;;;;;;;4.38;2.33;;;21.90;99.60;;;;;;5072388;28;20035;-44
2023/06/09 09:41:22;;;;;;;3.95;2.40;;;21.80;99.80;;;;;;5072144;28;20024;-45
2023/06/09 09:43:53;;;;;;;4.57;2.38;;;21.70;99.90;;;;;;5071900;28;20502;-44
2023/06/09 09:46:20;;;;;;;5.75;2.45;;;21.60;99.90;;;;;;5071866;28;20199;-47
2023/06/09 09:48:47;;;;;;;3.85;2.30;;;21.50;99.90;;;;;;5071915;28;20037;-45
2023/06/09 09:51:13;;;;;;;3.13;2.10;;;21.50;99.90;;;;;;5071710;28;20032;-43
2023/06/09 09:53:43;;;;;;;3.40;2.50;;;21.40;99.90;;;;;;5071672;28;20031;-42
2023/06/09 09:56:09;;;;;;;3.30;2.30;;;21.30;99.90;;;;;;5071907;28;20025;-42
2023/06/09 09:58:36;;;;;;;2.60;2.20;;;21.30;99.90;;;;;;5071601;28;20525;-43
2023/06/09 10:01:05;;;;;;;2.85;2.55;;;21.30;99.90;;;;;;5071506;28;20028;-43
2023/06/09 10:03:33;;;;;;;5.03;2.70;;;21.20;99.90;;;;;;5072074;28;20103;-43
2023/06/09 10:06:03;;;;;;;3.40;2.35;;;21.20;99.90;;;;;;5071447;28;20036;-44
2023/06/09 10:08:30;;;;;;;3.55;2.50;;;21.10;99.90;;;;;;5071595;28;20467;-44
2023/06/09 10:10:56;;;;;;;3.05;2.58;;;21.10;99.90;;;;;;5070750;28;20507;-45
2023/06/09 10:13:26;;;;;;;3.50;2.40;;;21.10;99.90;;;;;;5071447;28;20036;-44
2023/06/09 10:15:53;;;;;;;2.90;2.35;;;21.00;99.90;;;;;;5071560;28;20020;-47
2023/06/09 10:18:20;;;;;;;3.15;2.38;;;21.00;99.90;;;;;;5071344;28;20051;-44
2023/06/09 10:20:50;;;;;;;3.38;2.40;;;21.00;99.90;;;;;;5071065;28;20032;-45
2023/06/09 10:23:16;;;;;;;3.17;2.22;;;21.00;99.90;;;;;;5071394;28;20021;-44
2023/06/09 10:25:42;;;;;;;3.17;2.40;;;20.90;99.90;;;;;;5070022;28;20024;-44
2023/06/09 10:28:12;;;;;;;3.28;2.65;;;20.90;99.90;;;;;;5071396;28;20150;-43
2023/06/09 10:30:37;;;;;;;2.78;2.42;;;20.90;99.90;;;;;;5071221;28;20028;-43
2023/06/09 10:33:20;;;;;;;2.85;2.40;;;20.90;99.90;;;;;;5071205;28;20390;-44
2023/06/09 10:35:48;;;;;;;3.10;2.58;;;20.90;99.90;;;;;;5071279;28;20031;-43
2023/06/09 10:38:30;;;;;;;2.33;2.13;;;20.90;99.90;;;;;;5071168;28;20383;-44
2023/06/09 10:41:12;;;;;;;2.92;2.35;;;20.90;99.90;;;;;;5071033;28;20013;-45
2023/06/09 10:44:17;;;;;;;4.50;2.80;;;20.90;99.90;;;;;;5071122;28;20092;-43
2023/06/09 10:46:48;;;;;;;3.35;2.15;;;20.90;99.90;;;;;;5071202;28;20033;-43
2023/06/09 10:49:25;;;;;;;3.40;2.47;;;20.90;99.90;;;;;;5071093;28;20418;-43
2023/06/09 10:51:53;;;;;;;2.85;2.10;;;20.90;99.90;;;;;;5070764;28;20056;-44
2023/06/09 10:54:25;;;;;;;4.20;2.53;;;20.80;99.90;;;;;;5071046;28;20032;-44
2023/06/09 10:57:00;;;;;;;3.40;2.60;;;20.80;99.90;;;;;;5071034;28;20055;-43
2023/06/09 10:59:25;;;;;;;4.63;2.50;;;20.80;99.90;;;;;;5071049;28;20390;-45
2023/06/09 11:02:03;;;;;;;2.78;2.28;;;20.80;99.90;;;;;;5070836;28;20016;-44
2023/06/09 11:04:55;;;;;;;3.40;2.53;;;20.80;99.90;;;;;;5089978;23;20384;-40
2023/06/09 11:07:29;;;;;;;4.68;3.28;;;20.80;99.90;;;;;;5048069;28;20123;-42
2023/06/09 11:09:58;;;;;;;2.92;2.42;;;20.80;99.90;;;;;;5051830;28;20031;-40
2023/06/09 11:12:46;;;;;;;2.70;2.28;;;20.80;99.90;;;;;;5051177;28;20490;-41
2023/06/09 11:15:15;;;;;;;3.92;2.58;;;20.80;99.90;;;;;;5051056;28;20112;-43
2023/06/09 11:17:52;;;;;;;3.42;2.72;;;20.80;99.90;;;;;;5050772;28;20037;-40
2023/06/09 11:20:23;;;;;;;2.90;2.42;;;20.80;99.90;;;;;;5051170;28;20036;-41
2023/06/09 11:22:50;;;;;;;2.95;2.53;;;20.80;99.90;;;;;;5054431;28;20105;-40
2023/06/09 11:25:18;;;;;;;3.05;2.42;;;20.80;99.90;;;;;;5056853;28;20044;-41
2023/06/09 11:27:45;;;;;;;4.22;2.60;;;20.80;99.90;;;;;;5054711;28;20545;-41
2023/06/09 11:30:18;;;;;;;2.80;2.50;;;20.80;99.90;;;;;;5054610;28;20033;-41
2023/06/09 11:32:49;;;;;;;3.00;2.22;;;20.80;99.90;;;;;;5055098;28;20017;-41
2023/06/09 11:35:30;;;;;;;3.42;2.03;;;20.80;99.90;;;;;;5054659;28;20021;-41
2023/06/09 11:37:59;;;;;;;3.22;2.60;;;20.80;99.90;;;;;;5054392;28;20102;-43
2023/06/09 11:40:26;;;;;;;4.22;2.45;;;20.80;99.90;;;;;;5054151;28;20029;-41
2023/06/09 11:42:52;;;;;;;3.38;2.80;;;20.80;99.90;;;;;;5054968;28;20025;-41
2023/06/09 11:45:18;;;;;;;3.80;2.60;;;20.80;99.90;;;;;;5054758;28;20036;-40
2023/06/09 11:47:45;;;;;;;4.15;2.60;;;20.80;99.90;;;;;;5054263;28;20025;-41
2023/06/09 11:50:15;;;;;;;3.08;2.33;;;20.80;99.90;;;;;;5053917;28;20044;-40
2023/06/09 11:52:45;;;;;;;4.18;2.60;;;20.80;99.90;;;;;;5054430;28;20021;-43
2023/06/09 11:55:16;;;;;;;3.08;2.55;;;20.80;99.90;;;;;;5054136;28;20025;-41
2023/06/09 11:57:42;;;;;;;3.10;2.80;;;20.80;99.90;;;;;;5054120;28;20462;-41
2023/06/09 12:00:14;;;;;;;4.65;2.60;;;20.80;99.90;;;;;;5053784;28;20104;-41
2023/06/09 12:02:44;;;;;;;3.95;2.70;;;20.80;99.90;;;;;;5054124;28;20021;-41
2023/06/09 12:05:14;;;;;;;3.83;2.70;;;20.80;99.90;;;;;;5053904;28;20032;-41
2023/06/09 12:07:44;;;;;;;5.25;2.83;;;20.80;99.90;;;;;;5053919;28;20087;-41
2023/06/09 12:10:10;;;;;;;4.40;2.92;;;20.80;99.90;;;;;;5053652;28;20562;-41
2023/06/09 12:12:43;;;;;;;2.88;2.45;;;20.80;99.90;;;;;;5054084;28;20075;-41
2023/06/09 12:15:11;;;;;;;5.63;2.53;;;20.80;99.90;;;;;;5053600;28;20027;-41
2023/06/09 12:17:36;;;;;;;4.53;2.63;;;20.80;99.90;;;;;;5053691;28;20032;-40
2023/06/09 12:20:32;;;;;;;3.08;2.70;;;20.80;99.90;;;;;;5053423;28;20025;-41
2023/06/09 12:23:14;;;;;;;4.53;2.75;;;20.80;99.90;;;;;;5053608;28;20063;-41
2023/06/09 12:25:45;;;;;;;3.15;2.47;;;20.80;99.90;;;;;;5053397;28;20035;-40
2023/06/09 12:28:26;;;;;;;3.63;2.70;;;20.80;99.90;;;;;;5053596;28;20021;-41
2023/06/09 12:31:08;;;;;;;3.40;2.50;;;20.80;99.90;;;;;;5054000;28;20027;-41
2023/06/09 12:33:35;;;;;;;4.95;2.70;;;20.80;99.90;;;;;;5052780;28;20029;-40
2023/06/09 12:36:05;;;;;;;4.47;2.60;;;20.80;99.90;;;;;;5053300;28;20025;-41
2023/06/09 12:38:38;;;;;;;2.70;2.00;;;20.80;99.90;;;;;;5053794;28;20032;-40
2023/06/09 12:41:09;;;;;;;3.67;2.45;;;20.80;99.90;;;;;;5054073;28;20519;-41
2023/06/09 12:43:56;;;;;;;3.75;2.67;;;20.80;99.90;;;;;;5053829;28;20051;-41
2023/06/09 12:46:28;;;;;;;3.42;2.40;;;20.80;99.90;;;;;;5053180;28;20028;-40
2023/06/09 12:49:03;;;;;;;2.95;2.30;;;20.80;99.90;;;;;;5053171;28;20033;-41
2023/06/09 12:51:30;;;;;;;2.30;2.10;;;20.80;99.90;;;;;;5052877;28;20411;-41
2023/06/09 12:53:57;;;;;;;4.50;2.38;;;20.80;99.90;;;;;;5053079;28;20395;-41